This is the latest recevied weather packets stored in our database for station/object KD9DOE. If no packets are shown the sender has not sent any weather packets the latest 1 day(s).
| Time | Temp. | Humidity | Pressure | Rain* | Wind** | Luminosity | Snow |
|---|---|---|---|---|---|---|---|
| 1778021580 | 13.89° C | 29% | 1008.9 hPa | 0 mm | 0.89 m/s, 338° | 139 W/m² | - |
| 1778021275 | 13.33° C | 28% | 1008.8 hPa | 0 mm | 0.45 m/s, 6° | 193 W/m² | - |
| 1778020973 | 13.89° C | 28% | 1008.8 hPa | 0 mm | 0.89 m/s, 303° | 209 W/m² | - |
| 1778020671 | 14.44° C | 28% | 1008.8 hPa | 0 mm | 1.79 m/s, 344° | 165 W/m² | - |
| 1778020367 | 13.89° C | 28% | 1008.9 hPa | 0 mm | 0.45 m/s, 124° | 238 W/m² | - |
| 1778020063 | 13.89° C | 27% | 1008.4 hPa | 0 mm | 0 m/s | 151 W/m² | - |
| 1778019760 | 13.89° C | 27% | 1008.7 hPa | 0 mm | 0.89 m/s, 279° | 185 W/m² | - |
| 1778019457 | 13.89° C | 28% | 1008.7 hPa | 0 mm | 0.45 m/s, 344° | 208 W/m² | - |
| 1778019153 | 13.89° C | 27% | 1008.5 hPa | 0 mm | 2.68 m/s, 348° | 172 W/m² | - |
| 1778018850 | 14.44° C | 27% | 1008.3 hPa | 0 mm | 1.34 m/s, 268° | 141 W/m² | - |
| 1778018547 | 14.44° C | 27% | 1008.5 hPa | 0 mm | 0.45 m/s, 322° | 133 W/m² | - |
| 1778018245 | 14.44° C | 26% | 1008.4 hPa | 0 mm | 0.45 m/s, 52° | 179 W/m² | - |
| 1778017943 | 14.44° C | 26% | 1008.6 hPa | 0 mm | 0 m/s | 184 W/m² | - |
| 1778017640 | 14.44° C | 28% | 1008.6 hPa | 0 mm | 0.45 m/s, 147° | 155 W/m² | - |
| 1778017338 | 14.44° C | 28% | 1008.4 hPa | 0 mm | 0.89 m/s, 176° | 238 W/m² | - |
| 1778017035 | 14.44° C | 26% | 1008.3 hPa | 0 mm | 0.89 m/s, 231° | 293 W/m² | - |
| 1778016732 | 13.33° C | 28% | 1008.4 hPa | 0 mm | 0 m/s | 397 W/m² | - |
| 1778016428 | 13.89° C | 27% | 1008.3 hPa | 0 mm | 1.34 m/s, 274° | 170 W/m² | - |
| 1778016126 | 13.89° C | 27% | 1008.4 hPa | 0 mm | 0.45 m/s, 4° | 128 W/m² | - |
| 1778015822 | 13.89° C | 26% | 1008.4 hPa | 0 mm | 1.79 m/s, 3° | 288 W/m² | - |
| 1778015520 | 15° C | 25% | 1008.4 hPa | 0 mm | 2.24 m/s, 329° | 218 W/m² | - |
| 1778015216 | 15° C | 26% | 1008.4 hPa | 0 mm | 0.45 m/s, 257° | 141 W/m² | - |
| 1778014913 | 14.44° C | 27% | 1008.4 hPa | 0 mm | 0.45 m/s, 277° | 153 W/m² | - |
| 1778014610 | 15° C | 25% | 1008.5 hPa | 0 mm | 1.34 m/s, 338° | 195 W/m² | - |
| 1778014308 | 14.44° C | 26% | 1008.4 hPa | 0 mm | 1.79 m/s, 305° | 115 W/m² | - |
* Rain latest hour (hover to see other rain measurements)
** Current wind speed in m/s (hover to see current wind gust speed)